createdAt,value
2018-05-15T00:00:43.918Z,5.70
2018-05-15T00:03:11.618Z,5.80
2018-05-15T00:05:39.969Z,5.70
2018-05-15T00:08:07.875Z,5.70
2018-05-15T00:10:35.692Z,5.70
2018-05-15T00:13:03.420Z,5.90
2018-05-15T00:15:31.104Z,5.90
2018-05-15T00:17:58.665Z,5.80
2018-05-15T00:20:26.441Z,5.70
2018-05-15T00:22:54.156Z,5.80
2018-05-15T00:25:22.028Z,5.70
2018-05-15T00:27:50.440Z,5.70
2018-05-15T00:30:17.984Z,5.50
2018-05-15T00:32:45.801Z,5.30
2018-05-15T00:35:14.592Z,5.40
2018-05-15T00:37:42.360Z,5.40
2018-05-15T00:40:10.677Z,5.40
2018-05-15T00:42:38.290Z,5.40
2018-05-15T00:45:06.752Z,5.30
2018-05-15T00:47:35.105Z,5.40
2018-05-15T00:50:02.986Z,5.40
2018-05-15T00:52:30.558Z,5.50
2018-05-15T00:55:09.920Z,5.50
2018-05-15T00:57:37.780Z,5.30
2018-05-15T01:00:06.120Z,5.30
2018-05-15T01:02:34.877Z,5.30
2018-05-15T01:05:02.822Z,5.30
2018-05-15T01:07:30.379Z,5.40
2018-05-15T01:09:58.413Z,5.20
2018-05-15T01:12:26.184Z,5.10
2018-05-15T01:14:53.799Z,5.10
2018-05-15T01:17:21.628Z,5.30
2018-05-15T01:19:49.379Z,5.40
2018-05-15T01:22:17.843Z,5.30
2018-05-15T01:24:45.739Z,5.30
2018-05-15T01:27:14.223Z,5.10
2018-05-15T01:29:42.156Z,5.00
2018-05-15T01:32:09.776Z,5.10
2018-05-15T01:34:37.746Z,5.20
2018-05-15T01:37:05.295Z,5.20
2018-05-15T01:39:33.134Z,5.20
2018-05-15T01:42:01.626Z,5.10
2018-05-15T01:44:30.297Z,5.10
2018-05-15T01:46:59.237Z,5.10
2018-05-15T01:49:26.784Z,5.10
2018-05-15T01:51:54.710Z,5.10
2018-05-15T01:54:23.065Z,4.90
2018-05-15T01:56:50.988Z,4.90
2018-05-15T01:59:18.876Z,4.80
2018-05-15T02:01:46.725Z,4.80
2018-05-15T02:04:14.608Z,4.80
2018-05-15T02:06:42.512Z,4.90
2018-05-15T02:09:10.972Z,4.90
2018-05-15T02:11:39.288Z,4.90
2018-05-15T02:14:06.855Z,4.80
2018-05-15T02:16:34.824Z,4.80
2018-05-15T02:19:03.005Z,4.80
2018-05-15T02:21:30.860Z,4.70
2018-05-15T02:23:58.618Z,4.70
2018-05-15T02:26:26.240Z,4.60
2018-05-15T02:28:54.249Z,4.40
2018-05-15T02:31:22.139Z,4.50
2018-05-15T02:33:49.805Z,4.60
2018-05-15T02:36:17.780Z,4.60
2018-05-15T02:38:45.529Z,4.50
2018-05-15T02:41:13.229Z,4.70
2018-05-15T02:43:41.212Z,4.70
2018-05-15T02:46:08.876Z,4.70
2018-05-15T02:48:36.551Z,4.70
2018-05-15T02:51:04.416Z,4.40
2018-05-15T02:53:32.010Z,4.40
2018-05-15T02:55:59.812Z,4.50
2018-05-15T02:58:27.524Z,4.60
2018-05-15T03:00:55.166Z,4.70
2018-05-15T03:03:22.771Z,4.80
2018-05-15T03:05:50.515Z,4.80
2018-05-15T03:08:18.269Z,4.90
2018-05-15T03:10:46.034Z,4.90
2018-05-15T03:13:13.979Z,5.00
2018-05-15T03:15:41.644Z,5.00
2018-05-15T03:18:09.542Z,4.90
2018-05-15T03:20:37.401Z,4.90
2018-05-15T03:23:04.985Z,5.00
2018-05-15T03:25:33.072Z,5.00
2018-05-15T03:28:01.024Z,5.20
2018-05-15T03:30:28.808Z,5.20
2018-05-15T03:32:56.352Z,5.30
2018-05-15T03:35:24.664Z,5.20
2018-05-15T03:37:53.145Z,5.20
2018-05-15T03:40:21.642Z,5.10
2018-05-15T03:42:49.441Z,5.00
2018-05-15T03:45:17.348Z,5.00
2018-05-15T03:47:46.140Z,5.00
2018-05-15T03:50:13.945Z,4.90
2018-05-15T03:52:41.773Z,5.00
2018-05-15T03:55:09.388Z,5.20
2018-05-15T03:57:36.948Z,5.30
2018-05-15T04:00:05.492Z,5.50
2018-05-15T04:02:44.773Z,5.50
2018-05-15T04:18:46.133Z,5.70
2018-05-15T04:21:13.688Z,5.80
2018-05-15T04:23:42.106Z,6.00
2018-05-15T04:26:09.844Z,5.90
2018-05-15T04:28:37.392Z,5.80
2018-05-15T04:31:05.735Z,5.90
2018-05-15T04:33:33.605Z,6.00
2018-05-15T04:36:01.571Z,6.00
2018-05-15T04:38:29.504Z,6.20
2018-05-15T04:40:57.255Z,6.20
2018-05-15T04:43:24.856Z,6.30
2018-05-15T04:45:52.419Z,6.30
2018-05-15T04:48:20.020Z,6.50
2018-05-15T04:50:47.977Z,6.60
2018-05-15T04:53:15.776Z,6.40
2018-05-15T04:55:43.452Z,6.40
2018-05-15T04:58:12.223Z,6.50
2018-05-15T05:00:39.829Z,6.40
2018-05-15T05:03:09.595Z,7.00
2018-05-15T05:05:37.268Z,7.00
2018-05-15T05:08:05.084Z,7.00
2018-05-15T05:10:32.684Z,7.00
2018-05-15T05:13:00.269Z,7.00
2018-05-15T05:15:27.811Z,7.10
2018-05-15T05:17:55.457Z,7.40
2018-05-15T05:20:23.251Z,7.80
2018-05-15T05:22:51.047Z,8.10
2018-05-15T05:25:18.645Z,7.80
2018-05-15T05:27:46.193Z,7.80
2018-05-15T05:30:13.907Z,7.90
2018-05-15T05:32:41.496Z,8.20
2018-05-15T05:35:09.157Z,8.30
2018-05-15T05:37:37.201Z,8.40
2018-05-15T05:40:05.099Z,8.60
2018-05-15T05:42:32.581Z,8.60
2018-05-15T05:45:00.193Z,8.90
2018-05-15T05:47:27.871Z,9.10
2018-05-15T05:49:55.757Z,9.20
2018-05-15T05:52:23.512Z,9.30
2018-05-15T05:54:51.316Z,9.60
2018-05-15T05:57:18.936Z,10.10
2018-05-15T05:59:46.495Z,10.30
2018-05-15T06:02:14.503Z,10.60
2018-05-15T06:04:42.407Z,10.60
2018-05-15T06:07:11.231Z,10.70
2018-05-15T06:09:38.845Z,10.60
2018-05-15T06:12:06.483Z,10.90
2018-05-15T06:14:34.037Z,11.20
2018-05-15T06:17:01.745Z,11.40
2018-05-15T06:19:29.806Z,11.30
2018-05-15T06:21:58.169Z,11.90
2018-05-15T06:24:26.775Z,11.90
2018-05-15T06:26:54.330Z,11.90
2018-05-15T06:29:22.000Z,12.00
2018-05-15T06:31:49.928Z,12.30
2018-05-15T06:34:17.732Z,12.50
2018-05-15T06:36:45.596Z,12.70
2018-05-15T06:39:13.308Z,12.90
2018-05-15T06:41:41.237Z,13.10
2018-05-15T06:44:08.782Z,13.20
2018-05-15T06:46:36.364Z,13.40
2018-05-15T06:49:04.372Z,13.70
2018-05-15T06:51:31.919Z,13.90
2018-05-15T06:54:00.000Z,14.20
2018-05-15T06:56:29.341Z,14.30
2018-05-15T06:58:57.063Z,14.20
2018-05-15T07:01:24.896Z,14.40
2018-05-15T07:03:52.448Z,14.30
2018-05-15T07:06:20.229Z,14.70
2018-05-15T07:08:48.313Z,14.60
2018-05-15T07:11:15.961Z,14.70
2018-05-15T07:13:43.780Z,14.70
2018-05-15T07:16:11.492Z,14.90
2018-05-15T07:18:39.034Z,15.00
2018-05-15T07:21:06.764Z,14.90
2018-05-15T07:23:34.479Z,14.60
2018-05-15T07:26:02.238Z,14.70
2018-05-15T07:28:30.301Z,14.80
2018-05-15T07:30:58.474Z,14.80
2018-05-15T07:33:26.132Z,14.70
2018-05-15T07:35:54.192Z,14.70
2018-05-15T07:38:21.877Z,15.00
2018-05-15T07:40:49.540Z,15.00
2018-05-15T07:43:17.092Z,15.20
2018-05-15T07:45:44.904Z,15.40
2018-05-15T07:48:13.228Z,15.40
2018-05-15T07:50:41.002Z,15.40
2018-05-15T07:53:08.841Z,15.50
2018-05-15T07:55:36.817Z,15.50
2018-05-15T07:58:05.384Z,15.10
2018-05-15T08:00:33.481Z,15.10
2018-05-15T08:03:01.325Z,15.10
2018-05-15T08:05:29.018Z,15.20
2018-05-15T08:07:56.769Z,15.20
2018-05-15T08:10:24.543Z,15.10
2018-05-15T08:12:52.470Z,15.20
2018-05-15T08:15:20.164Z,15.40
2018-05-15T08:17:47.905Z,15.50
2018-05-15T08:20:15.992Z,15.20
2018-05-15T08:22:43.686Z,15.20
2018-05-15T08:25:11.529Z,15.30
2018-05-15T08:27:39.384Z,15.40
2018-05-15T08:30:07.117Z,15.60
2018-05-15T08:32:34.660Z,15.30
2018-05-15T08:35:02.386Z,15.50
2018-05-15T08:37:30.508Z,15.50
2018-05-15T08:39:58.314Z,15.40
2018-05-15T08:42:26.356Z,15.50
2018-05-15T08:44:54.264Z,15.70
2018-05-15T08:47:22.075Z,15.70
2018-05-15T08:49:50.406Z,15.90
2018-05-15T08:52:18.012Z,15.80
2018-05-15T08:54:45.702Z,16.00
2018-05-15T08:57:13.550Z,15.70
2018-05-15T08:59:41.730Z,15.90
2018-05-15T09:02:09.756Z,15.80
2018-05-15T09:04:38.313Z,16.20
2018-05-15T09:07:06.155Z,16.10
2018-05-15T09:09:33.887Z,16.20
2018-05-15T09:12:01.767Z,16.40
2018-05-15T09:14:29.733Z,16.30
2018-05-15T09:16:57.698Z,16.10
2018-05-15T09:19:25.388Z,16.10
2018-05-15T09:21:53.248Z,16.30
2018-05-15T09:24:21.309Z,16.10
2018-05-15T09:26:49.085Z,16.10
2018-05-15T09:29:17.136Z,16.00
2018-05-15T09:31:44.655Z,16.10
2018-05-15T09:34:12.456Z,16.00
2018-05-15T09:36:40.237Z,15.90
2018-05-15T09:39:08.255Z,15.80
2018-05-15T09:41:36.159Z,15.90
2018-05-15T09:44:03.749Z,15.80
2018-05-15T09:46:31.380Z,15.70
2018-05-15T09:48:59.107Z,15.90
2018-05-15T09:51:26.832Z,15.90
2018-05-15T09:53:54.392Z,15.80
2018-05-15T09:56:22.357Z,15.80
2018-05-15T09:58:50.023Z,15.70
2018-05-15T10:01:17.833Z,15.90
2018-05-15T10:03:45.461Z,15.90
2018-05-15T10:06:13.423Z,15.90
2018-05-15T10:08:41.453Z,15.70
2018-05-15T10:11:09.140Z,15.60
2018-05-15T10:13:37.003Z,15.50
2018-05-15T10:16:04.926Z,15.40
2018-05-15T10:18:32.941Z,15.40
2018-05-15T10:21:00.811Z,15.10
2018-05-15T10:23:28.579Z,15.10
2018-05-15T10:25:57.180Z,15.20
2018-05-15T10:28:25.612Z,15.10
2018-05-15T10:30:53.875Z,15.10
2018-05-15T10:33:22.014Z,15.10
2018-05-15T10:35:50.696Z,15.00
2018-05-15T10:38:19.175Z,14.80
2018-05-15T10:40:47.608Z,14.50
2018-05-15T10:43:15.630Z,14.50
2018-05-15T10:45:43.204Z,14.20
2018-05-15T10:48:10.816Z,13.90
2018-05-15T10:50:38.685Z,13.30
2018-05-15T10:53:06.363Z,12.90
2018-05-15T10:55:34.762Z,12.60
2018-05-15T10:58:02.307Z,12.60
2018-05-15T11:00:30.655Z,12.60
2018-05-15T11:02:58.198Z,12.60
2018-05-15T11:05:25.779Z,12.50
2018-05-15T11:07:54.092Z,12.80
2018-05-15T11:10:21.664Z,12.80
2018-05-15T11:12:49.411Z,12.70
2018-05-15T11:15:17.134Z,12.70
2018-05-15T11:17:44.691Z,12.70
2018-05-15T11:20:23.999Z,12.80
2018-05-15T11:23:03.299Z,12.70
2018-05-15T11:25:30.891Z,12.80
2018-05-15T11:27:58.447Z,12.50
2018-05-15T11:30:26.077Z,12.30
2018-05-15T11:32:53.662Z,12.30
2018-05-15T11:35:21.528Z,12.40
2018-05-15T11:37:49.086Z,12.20
2018-05-15T11:40:17.720Z,12.10
2018-05-15T11:42:47.448Z,12.30
2018-05-15T11:45:15.036Z,12.30
2018-05-15T11:47:42.985Z,12.20
2018-05-15T11:50:10.986Z,12.40
2018-05-15T11:52:38.680Z,12.40
2018-05-15T11:55:05.555Z,12.30
2018-05-15T11:57:33.340Z,12.50
2018-05-15T12:00:00.959Z,12.20
2018-05-15T12:02:28.973Z,12.30
2018-05-15T12:04:57.308Z,12.60
2018-05-15T12:07:25.021Z,12.60
2018-05-15T12:09:52.877Z,12.40
2018-05-15T12:12:20.432Z,12.40
2018-05-15T12:14:48.004Z,12.30
2018-05-15T12:17:16.469Z,12.40
2018-05-15T12:19:44.600Z,12.70
2018-05-15T12:22:13.099Z,12.70
2018-05-15T12:24:40.735Z,12.70
2018-05-15T12:27:09.367Z,12.10
2018-05-15T12:29:37.049Z,12.10
2018-05-15T12:32:04.856Z,12.10
2018-05-15T12:34:32.758Z,12.20
2018-05-15T12:37:00.828Z,12.50
2018-05-15T12:39:28.709Z,12.60
2018-05-15T12:41:56.529Z,12.40
2018-05-15T12:44:24.349Z,12.50
2018-05-15T12:46:53.670Z,12.60
2018-05-15T12:49:21.453Z,12.50
2018-05-15T12:51:49.807Z,12.70
2018-05-15T12:54:18.295Z,12.80
2018-05-15T12:56:45.841Z,12.80
2018-05-15T12:59:13.611Z,12.70
2018-05-15T13:01:41.531Z,12.70
2018-05-15T13:04:09.087Z,12.80
2018-05-15T13:06:36.646Z,12.90
2018-05-15T13:09:04.548Z,12.80
2018-05-15T13:11:32.676Z,12.80
2018-05-15T13:14:00.227Z,12.60
2018-05-15T13:16:28.231Z,12.70
2018-05-15T13:18:55.784Z,12.70
2018-05-15T13:21:23.637Z,12.60
2018-05-15T13:23:51.380Z,12.60
2018-05-15T13:26:19.180Z,12.60
2018-05-15T13:28:46.844Z,12.50
2018-05-15T13:31:14.478Z,12.50
2018-05-15T13:33:42.641Z,12.50
2018-05-15T13:36:10.907Z,12.50
2018-05-15T13:38:38.662Z,12.40
2018-05-15T13:41:06.261Z,12.30
2018-05-15T13:43:33.807Z,12.30
2018-05-15T13:46:01.695Z,12.30
2018-05-15T13:48:29.240Z,12.30
2018-05-15T13:50:56.884Z,12.40
2018-05-15T13:53:24.680Z,12.40
2018-05-15T13:55:52.239Z,12.40
2018-05-15T13:58:19.804Z,12.40
2018-05-15T14:00:48.032Z,12.40
2018-05-15T14:03:15.840Z,12.30
2018-05-15T14:05:43.456Z,12.20
2018-05-15T14:08:11.046Z,12.10
2018-05-15T14:10:38.684Z,11.90
2018-05-15T14:13:07.160Z,11.90
2018-05-15T14:15:34.748Z,11.80
2018-05-15T14:18:02.395Z,11.80
2018-05-15T14:20:30.568Z,11.80
2018-05-15T14:22:58.160Z,11.90
2018-05-15T14:25:25.760Z,11.80
2018-05-15T14:27:53.349Z,11.90
2018-05-15T14:30:20.982Z,11.80
2018-05-15T14:32:48.761Z,11.90
2018-05-15T14:35:16.577Z,12.00
2018-05-15T14:37:45.497Z,12.10
2018-05-15T14:40:13.260Z,12.20
2018-05-15T14:42:52.875Z,12.20
2018-05-15T14:45:20.695Z,12.10
2018-05-15T14:47:48.279Z,12.30
2018-05-15T14:50:16.222Z,12.40
2018-05-15T14:52:43.779Z,12.50
2018-05-15T14:55:11.404Z,12.30
2018-05-15T14:57:40.228Z,12.70
2018-05-15T15:00:08.092Z,12.60
2018-05-15T15:02:36.050Z,12.40
2018-05-15T15:05:04.237Z,12.40
2018-05-15T15:07:31.812Z,12.50
2018-05-15T15:09:59.377Z,12.40
2018-05-15T15:12:27.692Z,12.60
2018-05-15T15:14:55.557Z,12.70
2018-05-15T15:17:24.101Z,12.60
2018-05-15T15:19:52.402Z,12.60
2018-05-15T15:22:19.978Z,12.60
2018-05-15T15:24:48.677Z,12.60
2018-05-15T15:27:16.557Z,12.60
2018-05-15T15:29:44.135Z,12.70
2018-05-15T15:32:11.696Z,12.50
2018-05-15T15:34:41.013Z,12.30
2018-05-15T15:37:10.089Z,12.30
2018-05-15T15:39:37.831Z,12.20
2018-05-15T15:42:05.683Z,12.30
2018-05-15T15:44:33.237Z,12.30
2018-05-15T15:47:01.774Z,12.30
2018-05-15T15:49:29.506Z,12.40
2018-05-15T15:51:57.136Z,12.50
2018-05-15T15:54:24.720Z,12.70
2018-05-15T15:56:52.395Z,12.90
2018-05-15T15:59:19.970Z,13.00
2018-05-15T16:01:47.646Z,13.00
2018-05-15T16:04:15.439Z,12.60
2018-05-15T16:06:43.180Z,12.50
2018-05-15T16:09:11.790Z,12.40
2018-05-15T16:11:39.439Z,12.40
2018-05-15T16:14:07.301Z,12.20
2018-05-15T16:16:35.319Z,12.20
2018-05-15T16:19:02.916Z,12.00
2018-05-15T16:21:31.944Z,11.70
2018-05-15T16:23:59.783Z,11.70
2018-05-15T16:26:27.688Z,11.60
2018-05-15T16:28:55.252Z,11.50
2018-05-15T16:31:22.820Z,11.60
2018-05-15T16:33:50.843Z,11.60
2018-05-15T16:36:18.543Z,11.60
2018-05-15T16:38:46.392Z,11.60
2018-05-15T16:41:13.984Z,11.50
2018-05-15T16:43:41.576Z,11.40
2018-05-15T16:46:10.282Z,11.30
2018-05-15T16:48:38.117Z,11.30
2018-05-15T16:51:05.936Z,11.10
2018-05-15T16:53:33.496Z,11.10
2018-05-15T16:56:01.415Z,11.20
2018-05-15T16:58:28.987Z,11.40
2018-05-15T17:00:57.786Z,11.40
2018-05-15T17:03:25.636Z,11.40
2018-05-15T17:05:53.384Z,11.50
2018-05-15T17:08:21.423Z,11.60
2018-05-15T17:10:49.268Z,11.60
2018-05-15T17:13:17.193Z,11.60
2018-05-15T17:15:45.798Z,11.20
2018-05-15T17:18:13.439Z,11.20
2018-05-15T17:20:41.017Z,11.20
2018-05-15T17:23:08.625Z,11.20
2018-05-15T17:25:36.259Z,11.20
2018-05-15T17:28:03.984Z,11.20
2018-05-15T17:30:32.628Z,11.40
2018-05-15T17:33:00.433Z,11.30
2018-05-15T17:35:28.008Z,11.20
2018-05-15T17:37:55.612Z,11.20
2018-05-15T17:40:23.231Z,11.30
2018-05-15T17:42:50.788Z,11.20
2018-05-15T17:45:18.525Z,11.10
2018-05-15T17:47:46.229Z,11.00
2018-05-15T17:50:14.100Z,10.90
2018-05-15T17:52:41.715Z,11.00
2018-05-15T17:55:11.457Z,10.70
2018-05-15T17:57:39.515Z,10.70
2018-05-15T18:00:07.243Z,10.60
2018-05-15T18:02:34.953Z,10.50
2018-05-15T18:05:02.529Z,10.50
2018-05-15T18:07:30.228Z,10.30
2018-05-15T18:09:58.074Z,10.10
2018-05-15T18:12:25.692Z,9.90
2018-05-15T18:14:53.369Z,9.90
2018-05-15T18:17:21.307Z,9.90
2018-05-15T18:19:49.202Z,10.00
2018-05-15T18:22:16.761Z,9.90
2018-05-15T18:24:44.543Z,9.90
2018-05-15T18:27:12.096Z,9.80
2018-05-15T18:29:39.665Z,9.70
2018-05-15T18:32:07.506Z,9.70
2018-05-15T18:34:35.116Z,9.80
2018-05-15T18:37:03.610Z,9.70
2018-05-15T18:39:32.840Z,9.70
2018-05-15T18:42:00.706Z,9.70
2018-05-15T18:44:28.315Z,9.80
2018-05-15T18:46:56.184Z,9.80
2018-05-15T18:49:24.152Z,9.70
2018-05-15T18:51:52.528Z,9.50
2018-05-15T18:54:20.174Z,9.50
2018-05-15T18:56:48.109Z,9.40
2018-05-15T18:59:15.702Z,9.40
2018-05-15T19:01:43.488Z,9.30
2018-05-15T19:04:12.069Z,9.40
2018-05-15T19:06:39.648Z,9.30
2018-05-15T19:09:07.359Z,9.20
2018-05-15T19:11:35.020Z,9.10
2018-05-15T19:14:02.745Z,9.10
2018-05-15T19:16:30.385Z,9.00
2018-05-15T19:18:58.081Z,8.80
2018-05-15T19:21:25.829Z,8.80
2018-05-15T19:23:53.468Z,8.80
2018-05-15T19:26:21.861Z,8.90
2018-05-15T19:28:49.412Z,8.90
2018-05-15T19:31:17.056Z,8.80
2018-05-15T19:33:51.128Z,8.70
2018-05-15T19:36:18.737Z,8.70
2018-05-15T19:38:46.326Z,8.70
2018-05-15T19:41:19.519Z,8.70
2018-05-15T19:43:47.117Z,8.60
2018-05-15T19:46:14.989Z,8.60
2018-05-15T19:48:42.828Z,8.40
2018-05-15T19:51:10.384Z,8.40
2018-05-15T19:53:37.951Z,8.20
2018-05-15T19:56:05.582Z,8.10
2018-05-15T19:58:33.124Z,8.00
2018-05-15T20:01:00.839Z,8.00
2018-05-15T20:03:28.549Z,8.00
2018-05-15T20:05:56.109Z,8.00
2018-05-15T20:08:23.658Z,8.00
2018-05-15T20:10:51.250Z,8.10
2018-05-15T20:13:18.882Z,8.00
2018-05-15T20:15:46.565Z,8.00
2018-05-15T20:18:14.174Z,8.00
2018-05-15T20:20:42.293Z,8.00
2018-05-15T20:23:09.924Z,8.00
2018-05-15T20:25:37.820Z,8.00
2018-05-15T20:28:05.376Z,8.00
2018-05-15T20:30:33.085Z,8.10
2018-05-15T20:33:00.693Z,8.10
2018-05-15T20:35:28.427Z,8.10
2018-05-15T20:37:56.114Z,8.20
2018-05-15T20:40:23.905Z,8.20
2018-05-15T20:42:51.458Z,8.10
2018-05-15T20:45:19.017Z,8.00
2018-05-15T20:47:46.904Z,7.80
2018-05-15T20:50:14.898Z,7.80
2018-05-15T20:52:43.324Z,7.50
2018-05-15T20:55:10.897Z,7.50
2018-05-15T20:57:38.441Z,7.50
2018-05-15T21:00:06.165Z,7.50
2018-05-15T21:02:34.562Z,7.20
2018-05-15T21:05:02.112Z,7.10
2018-05-15T21:07:29.964Z,7.10
2018-05-15T21:09:58.473Z,7.10
2018-05-15T21:12:26.223Z,7.10
2018-05-15T21:14:53.773Z,7.30
2018-05-15T21:17:21.773Z,7.20
2018-05-15T21:19:50.287Z,7.10
2018-05-15T21:22:18.116Z,7.10
2018-05-15T21:24:45.788Z,7.00
2018-05-15T21:27:13.768Z,6.90
2018-05-15T21:29:41.480Z,6.80
2018-05-15T21:32:09.092Z,6.90
2018-05-15T21:34:36.650Z,7.00
2018-05-15T21:37:04.419Z,7.10
2018-05-15T21:39:32.007Z,7.10
2018-05-15T21:42:00.353Z,7.30
2018-05-15T21:44:27.914Z,7.30
2018-05-15T21:46:56.261Z,7.10
2018-05-15T21:49:23.913Z,7.00
2018-05-15T21:51:51.682Z,7.20
2018-05-15T21:54:19.615Z,7.30
2018-05-15T21:56:47.932Z,7.20
2018-05-15T21:59:15.489Z,7.20
2018-05-15T22:01:43.077Z,7.20
2018-05-15T22:04:12.137Z,7.20
2018-05-15T22:06:39.683Z,7.20
2018-05-15T22:09:07.424Z,7.30
2018-05-15T22:11:47.505Z,7.30
2018-05-15T22:14:26.763Z,7.30
2018-05-15T22:17:06.140Z,7.30
2018-05-15T22:19:45.819Z,7.50
2018-05-15T22:22:15.036Z,7.40
2018-05-15T22:24:42.667Z,7.40
2018-05-15T22:27:10.404Z,7.30
2018-05-15T22:29:38.900Z,7.40
2018-05-15T22:32:07.691Z,7.40
2018-05-15T22:34:35.272Z,7.40
2018-05-15T22:37:02.823Z,7.50
2018-05-15T22:39:30.368Z,7.60
2018-05-15T22:41:57.955Z,7.50
2018-05-15T22:44:25.500Z,7.50
2018-05-15T22:46:53.292Z,7.30
2018-05-15T22:49:20.919Z,7.40
2018-05-15T22:51:48.464Z,7.50
2018-05-15T22:54:16.025Z,7.40
2018-05-15T22:56:43.755Z,7.40
2018-05-15T22:59:12.065Z,7.20
2018-05-15T23:01:39.617Z,7.20
2018-05-15T23:04:07.190Z,7.40
2018-05-15T23:06:34.790Z,7.40
2018-05-15T23:09:02.610Z,7.50
2018-05-15T23:11:30.350Z,7.50
2018-05-15T23:13:58.664Z,7.60
2018-05-15T23:16:26.220Z,7.50
2018-05-15T23:18:53.937Z,7.40
2018-05-15T23:21:22.384Z,7.40
2018-05-15T23:23:49.936Z,7.40
2018-05-15T23:26:18.044Z,7.50
2018-05-15T23:28:45.616Z,7.50
2018-05-15T23:31:13.935Z,7.40
2018-05-15T23:33:41.538Z,7.40
2018-05-15T23:36:09.860Z,7.40
2018-05-15T23:38:37.412Z,7.40
2018-05-15T23:41:05.106Z,7.50
2018-05-15T23:43:32.672Z,7.40
2018-05-15T23:46:01.871Z,7.30
2018-05-15T23:48:30.379Z,7.40
2018-05-15T23:50:58.695Z,7.20
2018-05-15T23:53:26.428Z,7.30
2018-05-15T23:55:54.017Z,7.30
2018-05-15T23:58:21.559Z,7.40
